Terminal Aerodrome Forecast
Issued by NWS Blacksburg, VA

Home | Current Version | Previous Version | Text Only | Print | Product List | Glossary On
Versions: 1 2 3 4 5 6 7 8 9 10 11 12 13 14 15 16 17 18 19 20 21 22
000
FTUS41 KRNK 231230 AAA
TAFDAN
TAF AMD
KDAN 231230Z 2313/2412 09004KT P6SM -RA SCT006 BKN080
      TEMPO 2313/2315 5SM -RA BR BKN006
     FM231500 04008KT 2SM RA BR OVC009
     FM232100 04006KT 3SM -RA BR OVC004
     FM240500 02004KT 2SM BR OVC002=

USA.gov is the U.S. government's official web portal to all federal, state and local government web resources and services.